sensor_id;sensor_type;location;lat;lon;timestamp;temperature;humidity
23717;DHT22;22094;52.130;5.598;2023-05-23T00:02:16;14.60;99.90
23717;DHT22;22094;52.130;5.598;2023-05-23T00:04:42;14.60;99.90
23717;DHT22;22094;52.130;5.598;2023-05-23T00:07:09;14.60;99.90
23717;DHT22;22094;52.130;5.598;2023-05-23T00:09:34;14.90;99.90
23717;DHT22;22094;52.130;5.598;2023-05-23T00:12:00;14.50;99.90
23717;DHT22;22094;52.130;5.598;2023-05-23T00:14:26;14.60;99.90
23717;DHT22;22094;52.130;5.598;2023-05-23T00:16:52;14.50;99.90
23717;DHT22;22094;52.130;5.598;2023-05-23T00:19:17;14.50;99.90
23717;DHT22;22094;52.130;5.598;2023-05-23T00:21:46;14.50;99.90
23717;DHT22;22094;52.130;5.598;2023-05-23T00:24:16;14.40;99.90
23717;DHT22;22094;52.130;5.598;2023-05-23T00:26:43;14.40;99.90
23717;DHT22;22094;52.130;5.598;2023-05-23T00:29:09;14.40;99.90
23717;DHT22;22094;52.130;5.598;2023-05-23T00:31:40;14.30;99.90
23717;DHT22;22094;52.130;5.598;2023-05-23T00:34:05;14.30;99.90
23717;DHT22;22094;52.130;5.598;2023-05-23T00:36:31;14.10;99.90
23717;DHT22;22094;52.130;5.598;2023-05-23T00:39:01;14.00;99.90
23717;DHT22;22094;52.130;5.598;2023-05-23T00:41:29;13.90;99.90
23717;DHT22;22094;52.130;5.598;2023-05-23T00:43:56;13.90;99.90
23717;DHT22;22094;52.130;5.598;2023-05-23T00:46:28;13.80;99.90
23717;DHT22;22094;52.130;5.598;2023-05-23T00:48:53;13.80;99.90
23717;DHT22;22094;52.130;5.598;2023-05-23T00:51:20;13.80;99.90
23717;DHT22;22094;52.130;5.598;2023-05-23T00:53:46;13.80;99.90
23717;DHT22;22094;52.130;5.598;2023-05-23T00:56:12;13.80;99.90
23717;DHT22;22094;52.130;5.598;2023-05-23T00:58:38;13.70;99.90
23717;DHT22;22094;52.130;5.598;2023-05-23T01:01:05;13.70;99.90
23717;DHT22;22094;52.130;5.598;2023-05-23T01:03:31;13.80;99.90
23717;DHT22;22094;52.130;5.598;2023-05-23T01:05:56;13.80;99.90
23717;DHT22;22094;52.130;5.598;2023-05-23T01:08:22;13.80;99.90
23717;DHT22;22094;52.130;5.598;2023-05-23T01:10:48;13.70;99.90
23717;DHT22;22094;52.130;5.598;2023-05-23T01:13:33;13.70;99.90
23717;DHT22;22094;52.130;5.598;2023-05-23T01:16:38;13.70;99.90
23717;DHT22;22094;52.130;5.598;2023-05-23T01:19:30;13.70;99.90
23717;DHT22;22094;52.130;5.598;2023-05-23T01:22:11;13.70;99.90
23717;DHT22;22094;52.130;5.598;2023-05-23T01:24:54;13.80;99.90
23717;DHT22;22094;52.130;5.598;2023-05-23T01:27:40;13.80;99.90
23717;DHT22;22094;52.130;5.598;2023-05-23T01:30:08;13.80;99.90
23717;DHT22;22094;52.130;5.598;2023-05-23T01:32:36;13.90;99.90
23717;DHT22;22094;52.130;5.598;2023-05-23T01:35:03;13.90;99.90
23717;DHT22;22094;52.130;5.598;2023-05-23T01:37:29;13.90;99.90
23717;DHT22;22094;52.130;5.598;2023-05-23T01:39:55;13.80;99.90
23717;DHT22;22094;52.130;5.598;2023-05-23T01:42:21;13.80;99.90
23717;DHT22;22094;52.130;5.598;2023-05-23T01:44:46;13.80;99.90
23717;DHT22;22094;52.130;5.598;2023-05-23T01:47:12;13.80;99.90
23717;DHT22;22094;52.130;5.598;2023-05-23T01:49:41;13.80;99.90
23717;DHT22;22094;52.130;5.598;2023-05-23T01:52:09;13.80;99.90
23717;DHT22;22094;52.130;5.598;2023-05-23T01:54:36;13.80;99.90
23717;DHT22;22094;52.130;5.598;2023-05-23T01:57:02;13.80;99.90
23717;DHT22;22094;52.130;5.598;2023-05-23T01:59:28;13.80;99.90
23717;DHT22;22094;52.130;5.598;2023-05-23T02:01:54;13.80;99.90
23717;DHT22;22094;52.130;5.598;2023-05-23T02:04:20;13.80;99.90
23717;DHT22;22094;52.130;5.598;2023-05-23T02:06:46;13.80;99.90
23717;DHT22;22094;52.130;5.598;2023-05-23T02:09:12;13.90;99.90
23717;DHT22;22094;52.130;5.598;2023-05-23T02:11:37;13.80;99.90
23717;DHT22;22094;52.130;5.598;2023-05-23T02:14:03;13.90;99.90
23717;DHT22;22094;52.130;5.598;2023-05-23T02:16:29;13.90;99.90
23717;DHT22;22094;52.130;5.598;2023-05-23T02:18:54;13.90;99.90
23717;DHT22;22094;52.130;5.598;2023-05-23T02:21:23;13.90;99.90
23717;DHT22;22094;52.130;5.598;2023-05-23T02:23:48;13.90;99.90
23717;DHT22;22094;52.130;5.598;2023-05-23T02:26:14;13.90;99.90
23717;DHT22;22094;52.130;5.598;2023-05-23T02:28:40;14.00;99.90
23717;DHT22;22094;52.130;5.598;2023-05-23T02:31:06;13.90;99.90
23717;DHT22;22094;52.130;5.598;2023-05-23T02:33:31;13.90;99.90
23717;DHT22;22094;52.130;5.598;2023-05-23T02:35:57;13.80;99.90
23717;DHT22;22094;52.130;5.598;2023-05-23T02:38:22;13.80;99.90
23717;DHT22;22094;52.130;5.598;2023-05-23T02:40:48;13.90;99.90
23717;DHT22;22094;52.130;5.598;2023-05-23T02:43:16;14.10;99.90
23717;DHT22;22094;52.130;5.598;2023-05-23T02:45:41;13.90;99.90
23717;DHT22;22094;52.130;5.598;2023-05-23T02:48:07;13.90;99.90
23717;DHT22;22094;52.130;5.598;2023-05-23T02:50:32;13.90;99.90
23717;DHT22;22094;52.130;5.598;2023-05-23T02:52:58;14.00;99.90
23717;DHT22;22094;52.130;5.598;2023-05-23T02:55:23;13.90;99.90
23717;DHT22;22094;52.130;5.598;2023-05-23T02:57:49;13.90;99.90
23717;DHT22;22094;52.130;5.598;2023-05-23T03:00:15;13.90;99.90
23717;DHT22;22094;52.130;5.598;2023-05-23T03:02:41;14.00;99.90
23717;DHT22;22094;52.130;5.598;2023-05-23T03:05:07;14.00;99.90
23717;DHT22;22094;52.130;5.598;2023-05-23T03:07:33;14.00;99.90
23717;DHT22;22094;52.130;5.598;2023-05-23T03:09:59;14.00;99.90
23717;DHT22;22094;52.130;5.598;2023-05-23T03:12:27;14.00;99.90
23717;DHT22;22094;52.130;5.598;2023-05-23T03:14:52;14.00;99.90
23717;DHT22;22094;52.130;5.598;2023-05-23T03:17:18;14.10;99.90
23717;DHT22;22094;52.130;5.598;2023-05-23T03:19:43;14.00;99.90
23717;DHT22;22094;52.130;5.598;2023-05-23T03:22:09;14.00;99.90
23717;DHT22;22094;52.130;5.598;2023-05-23T03:24:34;14.10;99.90
23717;DHT22;22094;52.130;5.598;2023-05-23T03:27:00;14.10;99.90
23717;DHT22;22094;52.130;5.598;2023-05-23T03:29:26;14.00;99.90
23717;DHT22;22094;52.130;5.598;2023-05-23T03:31:51;14.10;99.90
23717;DHT22;22094;52.130;5.598;2023-05-23T03:34:17;14.10;99.90
23717;DHT22;22094;52.130;5.598;2023-05-23T03:36:42;14.10;99.90
23717;DHT22;22094;52.130;5.598;2023-05-23T03:39:08;14.10;99.90
23717;DHT22;22094;52.130;5.598;2023-05-23T03:41:34;14.00;99.90
23717;DHT22;22094;52.130;5.598;2023-05-23T03:43:59;14.00;99.90
23717;DHT22;22094;52.130;5.598;2023-05-23T03:46:25;13.90;99.90
23717;DHT22;22094;52.130;5.598;2023-05-23T03:48:51;13.90;99.90
23717;DHT22;22094;52.130;5.598;2023-05-23T03:51:16;13.80;99.90
23717;DHT22;22094;52.130;5.598;2023-05-23T03:53:42;13.80;99.90
23717;DHT22;22094;52.130;5.598;2023-05-23T03:56:07;13.70;99.90
23717;DHT22;22094;52.130;5.598;2023-05-23T03:58:33;13.70;99.90
23717;DHT22;22094;52.130;5.598;2023-05-23T04:00:59;13.60;99.90
23717;DHT22;22094;52.130;5.598;2023-05-23T04:03:26;13.60;99.90
23717;DHT22;22094;52.130;5.598;2023-05-23T04:05:51;13.60;99.90
23717;DHT22;22094;52.130;5.598;2023-05-23T04:08:17;13.60;99.90
23717;DHT22;22094;52.130;5.598;2023-05-23T04:10:46;13.60;99.90
23717;DHT22;22094;52.130;5.598;2023-05-23T04:13:12;13.60;99.90
23717;DHT22;22094;52.130;5.598;2023-05-23T04:15:37;13.50;99.90
23717;DHT22;22094;52.130;5.598;2023-05-23T04:18:03;13.50;99.90
23717;DHT22;22094;52.130;5.598;2023-05-23T04:20:32;13.40;99.90
23717;DHT22;22094;52.130;5.598;2023-05-23T04:22:57;13.40;99.90
23717;DHT22;22094;52.130;5.598;2023-05-23T04:25:23;13.40;99.90
23717;DHT22;22094;52.130;5.598;2023-05-23T04:27:49;13.40;99.90
23717;DHT22;22094;52.130;5.598;2023-05-23T04:30:14;13.30;99.90
23717;DHT22;22094;52.130;5.598;2023-05-23T04:32:42;13.30;99.90
23717;DHT22;22094;52.130;5.598;2023-05-23T04:35:08;13.20;99.90
23717;DHT22;22094;52.130;5.598;2023-05-23T04:37:35;13.20;99.90
23717;DHT22;22094;52.130;5.598;2023-05-23T04:40:02;13.20;99.90
23717;DHT22;22094;52.130;5.598;2023-05-23T04:42:28;13.20;99.90
23717;DHT22;22094;52.130;5.598;2023-05-23T04:44:54;13.10;99.90
23717;DHT22;22094;52.130;5.598;2023-05-23T04:47:23;13.10;99.90
23717;DHT22;22094;52.130;5.598;2023-05-23T04:49:53;13.10;99.90
23717;DHT22;22094;52.130;5.598;2023-05-23T04:52:19;13.10;99.90
23717;DHT22;22094;52.130;5.598;2023-05-23T04:54:45;13.10;99.90
23717;DHT22;22094;52.130;5.598;2023-05-23T04:57:11;13.10;99.90
23717;DHT22;22094;52.130;5.598;2023-05-23T04:59:37;13.10;99.90
23717;DHT22;22094;52.130;5.598;2023-05-23T05:02:03;13.10;99.90
23717;DHT22;22094;52.130;5.598;2023-05-23T05:04:30;13.10;99.90
23717;DHT22;22094;52.130;5.598;2023-05-23T05:06:55;13.00;99.90
23717;DHT22;22094;52.130;5.598;2023-05-23T05:09:21;13.00;99.90
23717;DHT22;22094;52.130;5.598;2023-05-23T05:11:47;13.00;99.90
23717;DHT22;22094;52.130;5.598;2023-05-23T05:14:13;13.00;99.90
23717;DHT22;22094;52.130;5.598;2023-05-23T05:16:38;13.00;99.90
23717;DHT22;22094;52.130;5.598;2023-05-23T05:19:04;12.90;99.90
23717;DHT22;22094;52.130;5.598;2023-05-23T05:21:29;13.00;99.90
23717;DHT22;22094;52.130;5.598;2023-05-23T05:23:55;13.10;99.90
23717;DHT22;22094;52.130;5.598;2023-05-23T05:26:22;13.00;99.90
23717;DHT22;22094;52.130;5.598;2023-05-23T05:28:47;13.00;99.90
23717;DHT22;22094;52.130;5.598;2023-05-23T05:31:13;13.20;99.90
23717;DHT22;22094;52.130;5.598;2023-05-23T05:33:40;12.90;99.90
23717;DHT22;22094;52.130;5.598;2023-05-23T05:36:06;13.00;99.90
23717;DHT22;22094;52.130;5.598;2023-05-23T05:38:32;13.00;99.90
23717;DHT22;22094;52.130;5.598;2023-05-23T05:40:58;12.90;99.90
23717;DHT22;22094;52.130;5.598;2023-05-23T05:43:24;12.90;99.90
23717;DHT22;22094;52.130;5.598;2023-05-23T05:45:50;13.00;99.90
23717;DHT22;22094;52.130;5.598;2023-05-23T05:48:16;12.90;99.90
23717;DHT22;22094;52.130;5.598;2023-05-23T05:50:42;12.90;99.90
23717;DHT22;22094;52.130;5.598;2023-05-23T05:53:10;12.90;99.90
23717;DHT22;22094;52.130;5.598;2023-05-23T05:55:35;12.70;99.90
23717;DHT22;22094;52.130;5.598;2023-05-23T05:58:02;12.90;99.90
23717;DHT22;22094;52.130;5.598;2023-05-23T06:00:27;13.00;99.90
23717;DHT22;22094;52.130;5.598;2023-05-23T06:02:53;11.10;99.90
23717;DHT22;22094;52.130;5.598;2023-05-23T06:05:21;13.60;99.90
23717;DHT22;22094;52.130;5.598;2023-05-23T06:07:48;13.10;99.90
23717;DHT22;22094;52.130;5.598;2023-05-23T06:10:14;13.30;99.90
23717;DHT22;22094;52.130;5.598;2023-05-23T06:15:06;13.10;99.90
23717;DHT22;22094;52.130;5.598;2023-05-23T06:17:32;10.90;99.90
23717;DHT22;22094;52.130;5.598;2023-05-23T06:19:57;13.20;99.90
23717;DHT22;22094;52.130;5.598;2023-05-23T06:22:23;13.50;99.90
23717;DHT22;22094;52.130;5.598;2023-05-23T06:29:40;16.10;99.90
23717;DHT22;22094;52.130;5.598;2023-05-23T06:32:06;14.90;99.90
23717;DHT22;22094;52.130;5.598;2023-05-23T06:34:32;10.90;99.90
23717;DHT22;22094;52.130;5.598;2023-05-23T06:36:58;15.00;99.90
23717;DHT22;22094;52.130;5.598;2023-05-23T06:39:23;15.00;99.90
23717;DHT22;22094;52.130;5.598;2023-05-23T06:44:15;14.10;99.90
23717;DHT22;22094;52.130;5.598;2023-05-23T06:46:45;15.40;99.90
23717;DHT22;22094;52.130;5.598;2023-05-23T06:51:37;13.40;99.90
23717;DHT22;22094;52.130;5.598;2023-05-23T06:54:02;14.40;99.90
23717;DHT22;22094;52.130;5.598;2023-05-23T06:56:28;13.60;99.90
23717;DHT22;22094;52.130;5.598;2023-05-23T06:58:54;12.20;99.90
23717;DHT22;22094;52.130;5.598;2023-05-23T07:01:20;13.00;99.90
23717;DHT22;22094;52.130;5.598;2023-05-23T07:03:45;15.20;99.90
23717;DHT22;22094;52.130;5.598;2023-05-23T07:06:11;12.90;99.90
23717;DHT22;22094;52.130;5.598;2023-05-23T07:08:37;13.80;99.90
23717;DHT22;22094;52.130;5.598;2023-05-23T07:11:03;15.70;99.90
23717;DHT22;22094;52.130;5.598;2023-05-23T07:15:55;13.20;99.90
23717;DHT22;22094;52.130;5.598;2023-05-23T07:18:21;13.10;99.90
23717;DHT22;22094;52.130;5.598;2023-05-23T07:20:47;12.90;99.90
23717;DHT22;22094;52.130;5.598;2023-05-23T07:25:39;15.30;99.90
23717;DHT22;22094;52.130;5.598;2023-05-23T07:30:32;12.90;99.90
23717;DHT22;22094;52.130;5.598;2023-05-23T07:32:58;14.20;99.90
23717;DHT22;22094;52.130;5.598;2023-05-23T07:35:23;10.00;99.90
23717;DHT22;22094;52.130;5.598;2023-05-23T07:37:54;14.20;99.90
23717;DHT22;22094;52.130;5.598;2023-05-23T07:42:46;15.60;99.90
23717;DHT22;22094;52.130;5.598;2023-05-23T07:47:38;11.80;99.90
23717;DHT22;22094;52.130;5.598;2023-05-23T07:50:04;14.90;99.90
23717;DHT22;22094;52.130;5.598;2023-05-23T07:52:30;13.90;99.90
23717;DHT22;22094;52.130;5.598;2023-05-23T07:59:52;13.90;99.90
23717;DHT22;22094;52.130;5.598;2023-05-23T08:02:19;13.90;99.90
23717;DHT22;22094;52.130;5.598;2023-05-23T08:07:11;16.30;99.90
23717;DHT22;22094;52.130;5.598;2023-05-23T08:09:37;14.10;99.90
23717;DHT22;22094;52.130;5.598;2023-05-23T08:14:30;14.10;99.90
23717;DHT22;22094;52.130;5.598;2023-05-23T08:24:14;15.00;99.90
23717;DHT22;22094;52.130;5.598;2023-05-23T08:26:39;15.00;99.90
23717;DHT22;22094;52.130;5.598;2023-05-23T08:29:06;15.10;99.90
23717;DHT22;22094;52.130;5.598;2023-05-23T08:31:34;15.00;99.90
23717;DHT22;22094;52.130;5.598;2023-05-23T08:34:00;14.70;99.90
23717;DHT22;22094;52.130;5.598;2023-05-23T08:36:26;13.90;99.90
23717;DHT22;22094;52.130;5.598;2023-05-23T08:41:19;13.00;99.90
23717;DHT22;22094;52.130;5.598;2023-05-23T08:43:45;15.00;99.90
23717;DHT22;22094;52.130;5.598;2023-05-23T08:46:12;15.10;99.90
23717;DHT22;22094;52.130;5.598;2023-05-23T08:48:38;15.50;99.90
23717;DHT22;22094;52.130;5.598;2023-05-23T08:51:06;16.30;99.90
23717;DHT22;22094;52.130;5.598;2023-05-23T08:53:32;16.10;99.90
23717;DHT22;22094;52.130;5.598;2023-05-23T08:56:02;17.40;99.90
23717;DHT22;22094;52.130;5.598;2023-05-23T08:58:31;17.60;99.90
23717;DHT22;22094;52.130;5.598;2023-05-23T09:00:59;14.60;99.90
23717;DHT22;22094;52.130;5.598;2023-05-23T09:03:27;14.70;99.90
23717;DHT22;22094;52.130;5.598;2023-05-23T09:05:54;14.80;99.90
23717;DHT22;22094;52.130;5.598;2023-05-23T09:10:48;15.20;99.90
23717;DHT22;22094;52.130;5.598;2023-05-23T09:13:17;15.40;99.90
23717;DHT22;22094;52.130;5.598;2023-05-23T09:16:08;15.40;99.90
23717;DHT22;22094;52.130;5.598;2023-05-23T09:18:36;15.40;99.90
23717;DHT22;22094;52.130;5.598;2023-05-23T09:21:01;15.90;99.90
23717;DHT22;22094;52.130;5.598;2023-05-23T09:23:37;18.20;99.90
23717;DHT22;22094;52.130;5.598;2023-05-23T09:26:11;15.80;99.90
23717;DHT22;22094;52.130;5.598;2023-05-23T09:28:38;16.00;99.90
23717;DHT22;22094;52.130;5.598;2023-05-23T09:31:05;15.90;99.90
23717;DHT22;22094;52.130;5.598;2023-05-23T09:36:05;15.40;99.90
23717;DHT22;22094;52.130;5.598;2023-05-23T09:38:36;16.10;99.90
23717;DHT22;22094;52.130;5.598;2023-05-23T09:45:54;16.40;99.90
23717;DHT22;22094;52.130;5.598;2023-05-23T09:48:27;14.70;99.90
23717;DHT22;22094;52.130;5.598;2023-05-23T09:53:20;14.80;99.90
23717;DHT22;22094;52.130;5.598;2023-05-23T09:55:51;16.40;99.90
23717;DHT22;22094;52.130;5.598;2023-05-23T09:58:19;14.70;99.90
23717;DHT22;22094;52.130;5.598;2023-05-23T10:00:49;16.80;99.90
23717;DHT22;22094;52.130;5.598;2023-05-23T10:03:20;16.90;99.90
23717;DHT22;22094;52.130;5.598;2023-05-23T10:05:49;16.40;99.90
23717;DHT22;22094;52.130;5.598;2023-05-23T10:13:25;13.90;99.90
23717;DHT22;22094;52.130;5.598;2023-05-23T10:16:11;15.60;99.90
23717;DHT22;22094;52.130;5.598;2023-05-23T10:18:42;16.30;99.90
23717;DHT22;22094;52.130;5.598;2023-05-23T10:21:13;16.90;99.90
23717;DHT22;22094;52.130;5.598;2023-05-23T10:23:41;15.10;99.90
23717;DHT22;22094;52.130;5.598;2023-05-23T10:26:07;16.40;99.90
23717;DHT22;22094;52.130;5.598;2023-05-23T10:30:59;15.40;99.90
23717;DHT22;22094;52.130;5.598;2023-05-23T10:36:01;14.60;99.90
23717;DHT22;22094;52.130;5.598;2023-05-23T10:46:53;18.10;99.90
23717;DHT22;22094;52.130;5.598;2023-05-23T10:49:20;17.10;99.90
23717;DHT22;22094;52.130;5.598;2023-05-23T10:51:49;16.90;99.90
23717;DHT22;22094;52.130;5.598;2023-05-23T10:54:18;17.00;99.90
23717;DHT22;22094;52.130;5.598;2023-05-23T10:56:45;16.00;99.90
23717;DHT22;22094;52.130;5.598;2023-05-23T10:59:21;15.70;99.90
23717;DHT22;22094;52.130;5.598;2023-05-23T11:01:50;16.40;99.90
23717;DHT22;22094;52.130;5.598;2023-05-23T11:04:24;16.20;99.90
23717;DHT22;22094;52.130;5.598;2023-05-23T11:09:17;15.00;99.90
23717;DHT22;22094;52.130;5.598;2023-05-23T11:12:02;16.20;99.90
23717;DHT22;22094;52.130;5.598;2023-05-23T11:14:32;17.60;99.90
23717;DHT22;22094;52.130;5.598;2023-05-23T11:16:59;17.40;99.90
23717;DHT22;22094;52.130;5.598;2023-05-23T11:19:26;18.50;99.90
23717;DHT22;22094;52.130;5.598;2023-05-23T11:22:00;17.20;99.90
23717;DHT22;22094;52.130;5.598;2023-05-23T11:24:54;16.80;99.90
23717;DHT22;22094;52.130;5.598;2023-05-23T11:27:37;17.30;99.90
23717;DHT22;22094;52.130;5.598;2023-05-23T11:30:10;16.60;99.90
23717;DHT22;22094;52.130;5.598;2023-05-23T11:47:41;18.90;99.90
23717;DHT22;22094;52.130;5.598;2023-05-23T11:50:07;18.10;99.90
23717;DHT22;22094;52.130;5.598;2023-05-23T11:55:00;15.00;99.90
23717;DHT22;22094;52.130;5.598;2023-05-23T11:57:26;17.00;99.90
23717;DHT22;22094;52.130;5.598;2023-05-23T11:59:52;18.50;99.90
23717;DHT22;22094;52.130;5.598;2023-05-23T12:02:18;15.70;99.90
23717;DHT22;22094;52.130;5.598;2023-05-23T12:04:44;15.40;99.90
23717;DHT22;22094;52.130;5.598;2023-05-23T12:07:10;15.80;99.90
23717;DHT22;22094;52.130;5.598;2023-05-23T12:09:43;13.90;99.90
23717;DHT22;22094;52.130;5.598;2023-05-23T12:12:09;16.00;99.90
23717;DHT22;22094;52.130;5.598;2023-05-23T12:14:35;17.40;99.90
23717;DHT22;22094;52.130;5.598;2023-05-23T12:17:03;17.00;99.90
23717;DHT22;22094;52.130;5.598;2023-05-23T12:19:29;17.80;99.90
23717;DHT22;22094;52.130;5.598;2023-05-23T12:21:55;18.50;99.90
23717;DHT22;22094;52.130;5.598;2023-05-23T12:24:24;15.60;99.90
23717;DHT22;22094;52.130;5.598;2023-05-23T12:26:51;17.60;99.90
23717;DHT22;22094;52.130;5.598;2023-05-23T12:29:26;17.50;99.90
23717;DHT22;22094;52.130;5.598;2023-05-23T12:31:52;15.60;99.90
23717;DHT22;22094;52.130;5.598;2023-05-23T12:34:19;16.90;99.90
23717;DHT22;22094;52.130;5.598;2023-05-23T12:41:43;18.40;99.90
23717;DHT22;22094;52.130;5.598;2023-05-23T12:46:36;16.70;99.90
23717;DHT22;22094;52.130;5.598;2023-05-23T12:49:01;17.00;99.90
23717;DHT22;22094;52.130;5.598;2023-05-23T12:51:27;18.80;99.90
23717;DHT22;22094;52.130;5.598;2023-05-23T12:53:53;17.30;99.90
23717;DHT22;22094;52.130;5.598;2023-05-23T12:56:19;18.80;99.90
23717;DHT22;22094;52.130;5.598;2023-05-23T12:58:46;19.60;99.90
23717;DHT22;22094;52.130;5.598;2023-05-23T13:01:13;15.80;99.90
23717;DHT22;22094;52.130;5.598;2023-05-23T13:03:38;17.90;99.90
23717;DHT22;22094;52.130;5.598;2023-05-23T13:06:04;16.40;99.90
23717;DHT22;22094;52.130;5.598;2023-05-23T13:08:30;16.50;99.90
23717;DHT22;22094;52.130;5.598;2023-05-23T13:13:22;16.20;99.90
23717;DHT22;22094;52.130;5.598;2023-05-23T13:15:48;17.70;99.90
23717;DHT22;22094;52.130;5.598;2023-05-23T13:18:14;17.00;99.90
23717;DHT22;22094;52.130;5.598;2023-05-23T13:20:40;16.70;99.90
23717;DHT22;22094;52.130;5.598;2023-05-23T13:27:59;17.30;99.90
23717;DHT22;22094;52.130;5.598;2023-05-23T13:32:52;18.80;99.90
23717;DHT22;22094;52.130;5.598;2023-05-23T13:37:44;19.60;99.90
23717;DHT22;22094;52.130;5.598;2023-05-23T13:40:16;17.50;99.90
23717;DHT22;22094;52.130;5.598;2023-05-23T13:42:43;17.30;99.90
23717;DHT22;22094;52.130;5.598;2023-05-23T13:45:09;16.20;99.90
23717;DHT22;22094;52.130;5.598;2023-05-23T13:47:34;15.90;99.90
23717;DHT22;22094;52.130;5.598;2023-05-23T13:50:02;14.60;99.90
23717;DHT22;22094;52.130;5.598;2023-05-23T13:52:28;17.70;99.90
23717;DHT22;22094;52.130;5.598;2023-05-23T13:54:53;16.50;99.90
23717;DHT22;22094;52.130;5.598;2023-05-23T13:59:45;16.80;99.90
23717;DHT22;22094;52.130;5.598;2023-05-23T14:02:11;16.60;99.90
23717;DHT22;22094;52.130;5.598;2023-05-23T14:04:36;17.10;99.90
23717;DHT22;22094;52.130;5.598;2023-05-23T14:09:28;16.70;99.90
23717;DHT22;22094;52.130;5.598;2023-05-23T14:11:54;17.70;99.90
23717;DHT22;22094;52.130;5.598;2023-05-23T14:14:19;20.90;99.90
23717;DHT22;22094;52.130;5.598;2023-05-23T14:21:37;17.70;99.90
23717;DHT22;22094;52.130;5.598;2023-05-23T14:26:29;19.70;99.90
23717;DHT22;22094;52.130;5.598;2023-05-23T14:28:54;19.10;99.90
23717;DHT22;22094;52.130;5.598;2023-05-23T14:31:20;17.80;99.90
23717;DHT22;22094;52.130;5.598;2023-05-23T14:33:46;19.20;99.90
23717;DHT22;22094;52.130;5.598;2023-05-23T14:36:14;18.60;99.90
23717;DHT22;22094;52.130;5.598;2023-05-23T14:38:39;16.70;99.90
23717;DHT22;22094;52.130;5.598;2023-05-23T14:41:06;18.90;99.90
23717;DHT22;22094;52.130;5.598;2023-05-23T14:43:31;18.10;99.90
23717;DHT22;22094;52.130;5.598;2023-05-23T14:48:23;21.10;99.90
23717;DHT22;22094;52.130;5.598;2023-05-23T14:50:48;17.30;99.90
23717;DHT22;22094;52.130;5.598;2023-05-23T14:53:14;19.00;99.90
23717;DHT22;22094;52.130;5.598;2023-05-23T14:58:06;19.20;99.90
23717;DHT22;22094;52.130;5.598;2023-05-23T15:00:31;18.20;99.90
23717;DHT22;22094;52.130;5.598;2023-05-23T15:02:57;20.40;99.90
23717;DHT22;22094;52.130;5.598;2023-05-23T15:05:23;21.00;99.90
23717;DHT22;22094;52.130;5.598;2023-05-23T15:07:49;21.60;99.90
23717;DHT22;22094;52.130;5.598;2023-05-23T15:10:15;21.20;99.90
23717;DHT22;22094;52.130;5.598;2023-05-23T15:12:41;22.00;99.90
23717;DHT22;22094;52.130;5.598;2023-05-23T15:15:07;19.60;99.90
23717;DHT22;22094;52.130;5.598;2023-05-23T15:17:33;19.60;99.90
23717;DHT22;22094;52.130;5.598;2023-05-23T15:19:58;19.60;99.90
23717;DHT22;22094;52.130;5.598;2023-05-23T15:22:24;19.70;99.90
23717;DHT22;22094;52.130;5.598;2023-05-23T15:24:50;19.40;99.90
23717;DHT22;22094;52.130;5.598;2023-05-23T15:27:16;19.30;99.90
23717;DHT22;22094;52.130;5.598;2023-05-23T15:29:42;20.40;99.90
23717;DHT22;22094;52.130;5.598;2023-05-23T15:34:33;18.10;99.90
23717;DHT22;22094;52.130;5.598;2023-05-23T15:36:59;20.00;99.90
23717;DHT22;22094;52.130;5.598;2023-05-23T15:39:25;20.30;99.90
23717;DHT22;22094;52.130;5.598;2023-05-23T15:41:51;18.40;99.90
23717;DHT22;22094;52.130;5.598;2023-05-23T15:44:17;20.20;99.90
23717;DHT22;22094;52.130;5.598;2023-05-23T15:46:45;19.80;99.90
23717;DHT22;22094;52.130;5.598;2023-05-23T15:49:11;19.60;99.90
23717;DHT22;22094;52.130;5.598;2023-05-23T15:51:36;17.90;99.90
23717;DHT22;22094;52.130;5.598;2023-05-23T15:54:02;16.70;99.90
23717;DHT22;22094;52.130;5.598;2023-05-23T15:56:28;17.80;99.90
23717;DHT22;22094;52.130;5.598;2023-05-23T15:58:54;16.70;99.90
23717;DHT22;22094;52.130;5.598;2023-05-23T16:01:20;15.80;99.90
23717;DHT22;22094;52.130;5.598;2023-05-23T16:03:46;16.20;99.90
23717;DHT22;22094;52.130;5.598;2023-05-23T16:06:11;18.30;99.90
23717;DHT22;22094;52.130;5.598;2023-05-23T16:08:37;16.60;99.90
23717;DHT22;22094;52.130;5.598;2023-05-23T16:11:02;17.00;99.90
23717;DHT22;22094;52.130;5.598;2023-05-23T16:13:28;18.30;99.90
23717;DHT22;22094;52.130;5.598;2023-05-23T16:15:53;18.50;99.90
23717;DHT22;22094;52.130;5.598;2023-05-23T16:18:19;17.30;99.90
23717;DHT22;22094;52.130;5.598;2023-05-23T16:20:44;18.10;99.90
23717;DHT22;22094;52.130;5.598;2023-05-23T16:23:10;18.70;99.90
23717;DHT22;22094;52.130;5.598;2023-05-23T16:25:35;15.70;99.90
23717;DHT22;22094;52.130;5.598;2023-05-23T16:28:01;15.40;99.90
23717;DHT22;22094;52.130;5.598;2023-05-23T16:30:26;16.80;99.90
23717;DHT22;22094;52.130;5.598;2023-05-23T16:32:53;17.20;99.90
23717;DHT22;22094;52.130;5.598;2023-05-23T16:35:19;17.50;99.90
23717;DHT22;22094;52.130;5.598;2023-05-23T16:37:45;21.50;99.90
23717;DHT22;22094;52.130;5.598;2023-05-23T16:40:11;17.20;99.90
23717;DHT22;22094;52.130;5.598;2023-05-23T16:42:36;17.30;99.90
23717;DHT22;22094;52.130;5.598;2023-05-23T16:45:03;17.90;99.90
23717;DHT22;22094;52.130;5.598;2023-05-23T16:47:28;19.40;99.90
23717;DHT22;22094;52.130;5.598;2023-05-23T16:49:54;18.70;99.90
23717;DHT22;22094;52.130;5.598;2023-05-23T16:57:11;20.50;99.90
23717;DHT22;22094;52.130;5.598;2023-05-23T16:59:37;20.90;99.90
23717;DHT22;22094;52.130;5.598;2023-05-23T17:02:03;20.10;99.90
23717;DHT22;22094;52.130;5.598;2023-05-23T17:04:28;19.50;99.90
23717;DHT22;22094;52.130;5.598;2023-05-23T17:06:54;18.20;99.90
23717;DHT22;22094;52.130;5.598;2023-05-23T17:09:21;17.40;99.90
23717;DHT22;22094;52.130;5.598;2023-05-23T17:11:47;18.90;99.90
23717;DHT22;22094;52.130;5.598;2023-05-23T17:14:12;16.80;99.90
23717;DHT22;22094;52.130;5.598;2023-05-23T17:19:04;18.30;99.90
23717;DHT22;22094;52.130;5.598;2023-05-23T17:21:30;16.80;99.80
23717;DHT22;22094;52.130;5.598;2023-05-23T17:23:57;19.20;99.90
23717;DHT22;22094;52.130;5.598;2023-05-23T17:26:22;16.90;99.90
23717;DHT22;22094;52.130;5.598;2023-05-23T17:28:48;17.50;99.90
23717;DHT22;22094;52.130;5.598;2023-05-23T17:31:13;17.10;99.90
23717;DHT22;22094;52.130;5.598;2023-05-23T17:33:39;17.00;99.90
23717;DHT22;22094;52.130;5.598;2023-05-23T17:36:05;17.00;99.90
23717;DHT22;22094;52.130;5.598;2023-05-23T17:38:31;16.70;99.90
23717;DHT22;22094;52.130;5.598;2023-05-23T17:43:23;16.30;99.90
23717;DHT22;22094;52.130;5.598;2023-05-23T17:45:48;18.20;99.90
23717;DHT22;22094;52.130;5.598;2023-05-23T17:48:14;16.40;99.90
23717;DHT22;22094;52.130;5.598;2023-05-23T17:50:41;15.60;99.90
23717;DHT22;22094;52.130;5.598;2023-05-23T17:53:06;17.20;99.90